CSA2 weather

Lac Agile (Mascouche) Airport
Lac Agile, Quebec, Canada

Public forecast

Using degrees Celsius for public forecast. Weather courtesy of forecast.io.

Closest aviation weather report (METAR) to Lac Agile (Mascouche) Airport

Closest report is Montreal International (Mirabel) Airport, 18.1 nm (33.5 km) WSW. Retrieved 2020/04/04 17:00 UTC (58 minutes ago):

CYMX 041700Z 11006KT 070V130 45SM FEW035 FEW110 FEW230 09/01 A3005 RMK SC1AC1CI1 SC TR CI TR CUFRA ASOCTD SLP179

Closest aviation forecast (TAF) to Lac Agile (Mascouche) Airport

Closest forecast is Montreal International (Mirabel) Airport, 18.1 nm (33.5 km) WSW. Retrieved 2020/04/04 12:42 UTC (5 hours ago):

TAF CYMX 041139Z 0412/0512 VRB03KT P6SM FEW015 BKN050 TEMPO 0412/0414 BKN015 OVC050 PROB30 0412/0413 OVC008 FM041400 04006KT P6SM BKN015 TEMPO 0414/0418 BKN025 FM041800 04005KT P6SM BKN025 FM042200 VRB03KT P6SM FEW025 SCT100 BKN160 FM050500 03005KT P6SM FEW025 BKN080 FM050900 03006KT P6SM FEW030 OVC050 FM051100 05005KT P6SM -SHRA SCT006 OVC050 PROB30 0511/0512 5SM -SHRA BR BKN006 OVC030 RMK NXT FCST BY 041800Z